Main page
METAR-TAF:

METAR-TAF

Airports :

Ukiah Municipal Airport

Ukiah, California, United States

latitude: 39-07-33N, longitude: 123-12-03W, elevation: 613 ft

Current weather observation

The report was made 18 minutes ago, at 12:56 UTC
Wind 3 mph from the West/Northwest
Temperature 37°F
Humidity 75%
Pressure 30.09 in. Hg
Visibility: 10 miles
Clear sky

METAR: KUKI 271256Z AUTO 30003KT 10SM CLR 03/M01 A3009 RMK AO2 SLP189 T00281006

Time: 05:14 (13:14 UTC)

Forecast

The report was made 1 hour and 46 minutes ago, at 11:28 UTC
Forecast valid from 27 at 12 UTC to 28 at 12 UTC
Wind 0 mph from the North
Visibility: 6 miles
Scattered clouds at a height of 25000 ft
From 27 at 2200 UTC
Wind 6 mph from the Northwest
Visibility: 6 miles
Clear sky
From 28 at 0600 UTC
Wind 0 mph from the North
Visibility: 6 miles
Clear sky

TAF: KUKI 271128Z 2712/2812 00000KT P6SM SCT250 FM272200 32005KT P6SM SKC FM280600 00000KT P6SM SKC

Weather observations and forecasts of more than 4000 airports (METAR and TAF reports).

The available stations are represented by yellow and red dots on the map.

Hover mouse over dot to see the name of the station.

Then click to see weather observations and forecasts.

To change the map : click on the green buttons with a black cross to zoom in, on the green button with a dash to zoom out, or on the green arrows for adjacent maps.


METAR-TAF: